sensor_id;sensor_type;location;lat;lon;timestamp;pressure;altitude;pressure_sealevel;temperature;humidity
79006;BME280;69202;45.498;-73.582;2023-08-20T00:01:26;100326.41;;;21.31;64.99
79006;BME280;69202;45.498;-73.582;2023-08-20T00:03:53;100291.56;;;20.81;65.46
79006;BME280;69202;45.498;-73.582;2023-08-20T00:06:20;100362.66;;;21.48;64.93
79006;BME280;69202;45.498;-73.582;2023-08-20T00:08:46;100181.47;;;20.36;65.13
79006;BME280;69202;45.498;-73.582;2023-08-20T00:11:13;100047.34;;;19.48;65.16
79006;BME280;69202;45.498;-73.582;2023-08-20T00:13:39;100350.59;;;21.29;64.61
79006;BME280;69202;45.498;-73.582;2023-08-20T00:16:06;100372.00;;;21.42;64.87
79006;BME280;69202;45.498;-73.582;2023-08-20T00:18:32;100184.50;;;20.19;64.95
79006;BME280;69202;45.498;-73.582;2023-08-20T00:20:58;100311.31;;;21.03;65.40
79006;BME280;69202;45.498;-73.582;2023-08-20T00:23:26;100166.13;;;20.10;65.33
79006;BME280;69202;45.498;-73.582;2023-08-20T00:25:52;100194.41;;;20.10;64.85
79006;BME280;69202;45.498;-73.582;2023-08-20T00:28:19;100426.78;;;21.39;65.30
79006;BME280;69202;45.498;-73.582;2023-08-20T00:30:46;100318.53;;;20.68;65.89
79006;BME280;69202;45.498;-73.582;2023-08-20T00:33:12;100395.69;;;21.13;65.54
79006;BME280;69202;45.498;-73.582;2023-08-20T00:35:38;100350.94;;;20.87;66.42
79006;BME280;69202;45.498;-73.582;2023-08-20T00:38:05;100236.66;;;20.09;66.00
79006;BME280;69202;45.498;-73.582;2023-08-20T00:40:31;100214.44;;;19.96;65.75
79006;BME280;69202;45.498;-73.582;2023-08-20T00:42:57;100306.72;;;20.42;65.50
79006;BME280;69202;45.498;-73.582;2023-08-20T00:45:25;100300.13;;;20.49;66.06
79006;BME280;69202;45.498;-73.582;2023-08-20T00:47:52;100382.50;;;21.15;65.00
79006;BME280;69202;45.498;-73.582;2023-08-20T00:50:19;100371.75;;;21.23;64.96
79006;BME280;69202;45.498;-73.582;2023-08-20T00:52:45;100278.97;;;20.59;64.63
79006;BME280;69202;45.498;-73.582;2023-08-20T00:55:12;100361.31;;;21.20;64.39
79006;BME280;69202;45.498;-73.582;2023-08-20T00:57:39;100298.47;;;20.63;64.53
79006;BME280;69202;45.498;-73.582;2023-08-20T01:00:06;100325.38;;;20.51;64.06
79006;BME280;69202;45.498;-73.582;2023-08-20T01:02:37;100383.88;;;21.02;64.14
79006;BME280;69202;45.498;-73.582;2023-08-20T01:05:05;100312.22;;;20.68;65.00
79006;BME280;69202;45.498;-73.582;2023-08-20T01:12:50;100361.91;;;20.97;65.40
79006;BME280;69202;45.498;-73.582;2023-08-20T01:15:17;100355.06;;;20.89;65.42
79006;BME280;69202;45.498;-73.582;2023-08-20T01:17:43;100406.72;;;21.28;65.61
79006;BME280;69202;45.498;-73.582;2023-08-20T01:20:12;100407.81;;;21.27;64.74
79006;BME280;69202;45.498;-73.582;2023-08-20T01:25:46;100407.53;;;21.39;64.85
79006;BME280;69202;45.498;-73.582;2023-08-20T01:28:36;100417.69;;;21.48;65.30
79006;BME280;69202;45.498;-73.582;2023-08-20T01:31:05;100369.31;;;21.27;65.61
79006;BME280;69202;45.498;-73.582;2023-08-20T01:33:31;100368.72;;;21.25;65.67
79006;BME280;69202;45.498;-73.582;2023-08-20T01:35:58;100407.50;;;21.49;65.09
79006;BME280;69202;45.498;-73.582;2023-08-20T01:38:23;100390.19;;;21.33;64.67
79006;BME280;69202;45.498;-73.582;2023-08-20T01:40:49;100356.09;;;21.14;64.04
79006;BME280;69202;45.498;-73.582;2023-08-20T01:43:16;100411.88;;;21.55;64.39
79006;BME280;69202;45.498;-73.582;2023-08-20T01:45:42;100290.75;;;20.80;63.77
79006;BME280;69202;45.498;-73.582;2023-08-20T01:48:08;100423.72;;;21.50;63.65
79006;BME280;69202;45.498;-73.582;2023-08-20T01:50:35;100222.44;;;20.43;64.46
79006;BME280;69202;45.498;-73.582;2023-08-20T01:53:01;100269.06;;;20.63;63.83
79006;BME280;69202;45.498;-73.582;2023-08-20T01:55:28;100195.22;;;20.36;63.35
79006;BME280;69202;45.498;-73.582;2023-08-20T01:57:54;100349.50;;;21.30;64.54
79006;BME280;69202;45.498;-73.582;2023-08-20T02:00:20;100359.66;;;21.35;63.43
79006;BME280;69202;45.498;-73.582;2023-08-20T02:02:46;100411.53;;;21.67;63.61
79006;BME280;69202;45.498;-73.582;2023-08-20T02:05:12;100146.69;;;19.91;63.78
79006;BME280;69202;45.498;-73.582;2023-08-20T02:07:38;100176.25;;;20.40;63.35
79006;BME280;69202;45.498;-73.582;2023-08-20T02:10:04;100354.13;;;21.50;64.11
79006;BME280;69202;45.498;-73.582;2023-08-20T02:12:30;100414.25;;;21.77;62.72
79006;BME280;69202;45.498;-73.582;2023-08-20T02:14:56;100280.28;;;20.92;63.05
79006;BME280;69202;45.498;-73.582;2023-08-20T02:17:22;100385.75;;;21.57;64.05
79006;BME280;69202;45.498;-73.582;2023-08-20T02:19:49;100424.16;;;21.78;62.82
79006;BME280;69202;45.498;-73.582;2023-08-20T02:22:15;100406.59;;;21.69;62.84
79006;BME280;69202;45.498;-73.582;2023-08-20T02:24:41;100313.22;;;21.13;61.96
79006;BME280;69202;45.498;-73.582;2023-08-20T02:27:06;100373.66;;;21.43;62.38
79006;BME280;69202;45.498;-73.582;2023-08-20T02:29:32;100443.13;;;21.84;63.70
79006;BME280;69202;45.498;-73.582;2023-08-20T02:31:58;100300.03;;;21.04;63.59
79006;BME280;69202;45.498;-73.582;2023-08-20T02:34:24;100350.03;;;21.32;62.98
79006;BME280;69202;45.498;-73.582;2023-08-20T02:36:50;100384.63;;;21.58;62.40
79006;BME280;69202;45.498;-73.582;2023-08-20T02:39:16;100369.53;;;21.51;62.10
79006;BME280;69202;45.498;-73.582;2023-08-20T02:41:42;100407.16;;;21.66;62.77
79006;BME280;69202;45.498;-73.582;2023-08-20T02:44:08;100436.84;;;21.79;62.44
79006;BME280;69202;45.498;-73.582;2023-08-20T02:46:34;100298.13;;;21.05;61.66
79006;BME280;69202;45.498;-73.582;2023-08-20T02:49:00;100405.22;;;21.71;61.30
79006;BME280;69202;45.498;-73.582;2023-08-20T02:51:26;100426.66;;;21.74;61.06
79006;BME280;69202;45.498;-73.582;2023-08-20T02:53:52;100236.69;;;20.55;62.46
79006;BME280;69202;45.498;-73.582;2023-08-20T02:56:18;100369.25;;;21.42;62.76
79006;BME280;69202;45.498;-73.582;2023-08-20T02:58:44;100192.75;;;20.35;62.89
79006;BME280;69202;45.498;-73.582;2023-08-20T03:01:24;100408.78;;;21.67;62.22
79006;BME280;69202;45.498;-73.582;2023-08-20T03:03:51;100115.09;;;19.78;61.14
79006;BME280;69202;45.498;-73.582;2023-08-20T03:06:17;100446.19;;;21.83;61.57
79006;BME280;69202;45.498;-73.582;2023-08-20T03:08:43;100083.81;;;19.44;61.03
79006;BME280;69202;45.498;-73.582;2023-08-20T03:11:09;100315.72;;;21.04;61.16
79006;BME280;69202;45.498;-73.582;2023-08-20T03:13:34;100364.63;;;21.38;61.22
79006;BME280;69202;45.498;-73.582;2023-08-20T03:16:00;100226.50;;;20.40;61.70
79006;BME280;69202;45.498;-73.582;2023-08-20T03:18:27;100365.72;;;21.31;61.13
79006;BME280;69202;45.498;-73.582;2023-08-20T03:20:56;100336.88;;;21.09;61.95
79006;BME280;69202;45.498;-73.582;2023-08-20T03:23:23;100353.13;;;21.05;63.20
79006;BME280;69202;45.498;-73.582;2023-08-20T03:25:49;100464.91;;;21.81;61.71
79006;BME280;69202;45.498;-73.582;2023-08-20T03:28:18;100343.47;;;21.02;62.83
79006;BME280;69202;45.498;-73.582;2023-08-20T03:30:44;100270.75;;;20.44;62.54
79006;BME280;69202;45.498;-73.582;2023-08-20T03:33:10;100519.38;;;21.84;61.19
79006;BME280;69202;45.498;-73.582;2023-08-20T03:35:36;100359.19;;;20.97;62.34
79006;BME280;69202;45.498;-73.582;2023-08-20T03:38:02;100413.81;;;21.24;62.73
79006;BME280;69202;45.498;-73.582;2023-08-20T03:40:28;100184.25;;;20.06;62.92
79006;BME280;69202;45.498;-73.582;2023-08-20T03:42:54;100300.34;;;20.83;62.35
79006;BME280;69202;45.498;-73.582;2023-08-20T03:45:20;100424.25;;;21.52;61.72
79006;BME280;69202;45.498;-73.582;2023-08-20T03:47:46;100481.69;;;21.84;62.01
79006;BME280;69202;45.498;-73.582;2023-08-20T03:50:12;100254.50;;;20.37;61.25
79006;BME280;69202;45.498;-73.582;2023-08-20T03:52:38;100485.53;;;21.83;60.05
79006;BME280;69202;45.498;-73.582;2023-08-20T03:55:05;100438.88;;;21.48;61.06
79006;BME280;69202;45.498;-73.582;2023-08-20T03:57:31;100500.13;;;21.84;61.39
79006;BME280;69202;45.498;-73.582;2023-08-20T03:59:57;100425.66;;;21.35;61.54
79006;BME280;69202;45.498;-73.582;2023-08-20T04:02:23;100436.66;;;21.35;62.65
79006;BME280;69202;45.498;-73.582;2023-08-20T04:04:49;100342.41;;;20.78;61.86
79006;BME280;69202;45.498;-73.582;2023-08-20T04:07:15;100305.06;;;20.46;61.82
79006;BME280;69202;45.498;-73.582;2023-08-20T04:09:41;100504.84;;;21.68;61.05
79006;BME280;69202;45.498;-73.582;2023-08-20T04:12:08;100399.84;;;20.90;61.85
79006;BME280;69202;45.498;-73.582;2023-08-20T04:14:34;100515.88;;;21.68;61.13
79006;BME280;69202;45.498;-73.582;2023-08-20T04:17:00;100405.63;;;20.98;61.90
79006;BME280;69202;45.498;-73.582;2023-08-20T04:19:26;100492.22;;;21.52;61.90
79006;BME280;69202;45.498;-73.582;2023-08-20T04:21:52;100512.31;;;21.47;61.59
79006;BME280;69202;45.498;-73.582;2023-08-20T04:24:17;100542.53;;;21.73;62.45
79006;BME280;69202;45.498;-73.582;2023-08-20T04:26:43;100350.66;;;20.48;62.79
79006;BME280;69202;45.498;-73.582;2023-08-20T04:29:09;100391.63;;;20.85;62.22
79006;BME280;69202;45.498;-73.582;2023-08-20T04:31:35;100425.13;;;20.97;62.80
79006;BME280;69202;45.498;-73.582;2023-08-20T04:34:01;100367.72;;;20.65;63.10
79006;BME280;69202;45.498;-73.582;2023-08-20T04:36:27;100543.38;;;21.78;61.72
79006;BME280;69202;45.498;-73.582;2023-08-20T04:38:53;100546.38;;;21.77;62.44
79006;BME280;69202;45.498;-73.582;2023-08-20T04:41:19;100479.84;;;21.39;63.47
79006;BME280;69202;45.498;-73.582;2023-08-20T04:43:45;100432.00;;;20.99;62.62
79006;BME280;69202;45.498;-73.582;2023-08-20T04:46:11;100374.56;;;20.72;62.82
79006;BME280;69202;45.498;-73.582;2023-08-20T04:48:37;100248.47;;;20.00;63.37
79006;BME280;69202;45.498;-73.582;2023-08-20T04:51:05;100535.09;;;21.73;63.79
79006;BME280;69202;45.498;-73.582;2023-08-20T04:53:32;100352.81;;;20.40;62.63
79006;BME280;69202;45.498;-73.582;2023-08-20T04:55:58;100496.09;;;21.30;62.44
79006;BME280;69202;45.498;-73.582;2023-08-20T04:58:24;100498.53;;;21.12;63.22
79006;BME280;69202;45.498;-73.582;2023-08-20T05:00:50;100499.34;;;21.12;63.02
79006;BME280;69202;45.498;-73.582;2023-08-20T05:03:16;100399.03;;;20.59;63.29
79006;BME280;69202;45.498;-73.582;2023-08-20T05:05:48;100200.03;;;19.38;63.13
79006;BME280;69202;45.498;-73.582;2023-08-20T05:08:14;100301.13;;;19.86;62.46
79006;BME280;69202;45.498;-73.582;2023-08-20T05:10:40;100449.59;;;20.78;61.75
79006;BME280;69202;45.498;-73.582;2023-08-20T05:13:06;100556.03;;;21.33;62.93
79006;BME280;69202;45.498;-73.582;2023-08-20T05:15:32;100321.72;;;19.84;63.69
79006;BME280;69202;45.498;-73.582;2023-08-20T05:17:58;100477.59;;;20.60;64.89
79006;BME280;69202;45.498;-73.582;2023-08-20T05:20:24;100477.06;;;20.73;63.81
79006;BME280;69202;45.498;-73.582;2023-08-20T05:22:49;100511.72;;;20.89;63.46
79006;BME280;69202;45.498;-73.582;2023-08-20T05:25:15;100517.47;;;20.93;63.71
79006;BME280;69202;45.498;-73.582;2023-08-20T05:27:41;100560.94;;;21.11;63.32
79006;BME280;69202;45.498;-73.582;2023-08-20T05:30:07;100543.31;;;20.92;64.01
79006;BME280;69202;45.498;-73.582;2023-08-20T05:32:34;100545.84;;;21.09;64.27
79006;BME280;69202;45.498;-73.582;2023-08-20T05:35:00;100413.50;;;20.24;65.71
79006;BME280;69202;45.498;-73.582;2023-08-20T05:37:25;100415.66;;;20.11;63.58
79006;BME280;69202;45.498;-73.582;2023-08-20T05:39:51;100545.53;;;21.00;64.62
79006;BME280;69202;45.498;-73.582;2023-08-20T05:42:17;100497.66;;;20.70;65.21
79006;BME280;69202;45.498;-73.582;2023-08-20T05:44:43;100501.56;;;20.85;65.37
79006;BME280;69202;45.498;-73.582;2023-08-20T05:47:09;100488.31;;;20.71;64.32
79006;BME280;69202;45.498;-73.582;2023-08-20T05:49:35;100437.94;;;20.25;64.52
79006;BME280;69202;45.498;-73.582;2023-08-20T05:52:01;100527.94;;;20.96;64.46
79006;BME280;69202;45.498;-73.582;2023-08-20T05:54:28;100403.84;;;20.21;64.51
79006;BME280;69202;45.498;-73.582;2023-08-20T05:56:53;100488.63;;;20.75;63.92
79006;BME280;69202;45.498;-73.582;2023-08-20T05:59:19;100531.81;;;21.05;63.83
79006;BME280;69202;45.498;-73.582;2023-08-20T06:01:45;100444.59;;;20.50;64.26
79006;BME280;69202;45.498;-73.582;2023-08-20T06:04:11;100549.66;;;20.97;62.77
79006;BME280;69202;45.498;-73.582;2023-08-20T06:06:37;100361.81;;;19.95;64.21
79006;BME280;69202;45.498;-73.582;2023-08-20T06:09:03;100563.16;;;21.19;65.25
79006;BME280;69202;45.498;-73.582;2023-08-20T06:11:29;100300.69;;;19.47;64.75
79006;BME280;69202;45.498;-73.582;2023-08-20T06:13:55;100510.03;;;20.83;64.65
79006;BME280;69202;45.498;-73.582;2023-08-20T06:16:21;100340.03;;;19.68;64.94
79006;BME280;69202;45.498;-73.582;2023-08-20T06:18:47;100454.50;;;20.51;63.17
79006;BME280;69202;45.498;-73.582;2023-08-20T06:21:13;100559.56;;;21.09;64.45
79006;BME280;69202;45.498;-73.582;2023-08-20T06:23:39;100544.72;;;21.10;64.55
79006;BME280;69202;45.498;-73.582;2023-08-20T06:26:05;100510.88;;;20.79;64.83
79006;BME280;69202;45.498;-73.582;2023-08-20T06:28:30;100401.88;;;19.96;64.88
79006;BME280;69202;45.498;-73.582;2023-08-20T06:30:56;100354.75;;;19.52;63.34
79006;BME280;69202;45.498;-73.582;2023-08-20T06:33:22;100531.97;;;20.58;63.40
79006;BME280;69202;45.498;-73.582;2023-08-20T06:35:48;100516.03;;;20.60;63.61
79006;BME280;69202;45.498;-73.582;2023-08-20T06:38:14;100570.53;;;21.03;64.31
79006;BME280;69202;45.498;-73.582;2023-08-20T06:40:40;100513.03;;;20.61;64.30
79006;BME280;69202;45.498;-73.582;2023-08-20T06:43:06;100530.63;;;20.70;63.96
79006;BME280;69202;45.498;-73.582;2023-08-20T06:45:31;100514.97;;;20.71;64.15
79006;BME280;69202;45.498;-73.582;2023-08-20T06:47:57;100472.53;;;20.26;64.70
79006;BME280;69202;45.498;-73.582;2023-08-20T06:50:23;100516.31;;;20.58;63.46
79006;BME280;69202;45.498;-73.582;2023-08-20T06:52:49;100449.63;;;20.00;63.67
79006;BME280;69202;45.498;-73.582;2023-08-20T06:55:15;100566.31;;;20.60;64.50
79006;BME280;69202;45.498;-73.582;2023-08-20T06:57:41;100515.63;;;20.31;63.84
79006;BME280;69202;45.498;-73.582;2023-08-20T07:00:07;100209.56;;;18.62;63.05
79006;BME280;69202;45.498;-73.582;2023-08-20T07:02:33;100572.66;;;20.66;63.76
79006;BME280;69202;45.498;-73.582;2023-08-20T07:04:59;100287.84;;;18.90;64.65
79006;BME280;69202;45.498;-73.582;2023-08-20T07:07:25;100489.78;;;20.16;64.33
79006;BME280;69202;45.498;-73.582;2023-08-20T07:09:51;100474.09;;;20.07;64.08
79006;BME280;69202;45.498;-73.582;2023-08-20T07:12:17;100528.31;;;20.37;64.07
79006;BME280;69202;45.498;-73.582;2023-08-20T07:14:42;100554.19;;;20.51;64.65
79006;BME280;69202;45.498;-73.582;2023-08-20T07:17:08;100480.59;;;19.85;64.53
79006;BME280;69202;45.498;-73.582;2023-08-20T07:19:36;100617.47;;;20.71;64.44
79006;BME280;69202;45.498;-73.582;2023-08-20T07:22:02;100557.13;;;20.34;63.91
79006;BME280;69202;45.498;-73.582;2023-08-20T07:24:28;100565.47;;;20.50;64.97
79006;BME280;69202;45.498;-73.582;2023-08-20T07:26:55;100618.34;;;20.87;66.03
79006;BME280;69202;45.498;-73.582;2023-08-20T07:29:26;100633.47;;;20.85;65.62
79006;BME280;69202;45.498;-73.582;2023-08-20T07:31:56;100636.47;;;20.83;65.29
79006;BME280;69202;45.498;-73.582;2023-08-20T07:34:22;100580.03;;;20.50;65.31
79006;BME280;69202;45.498;-73.582;2023-08-20T07:36:48;100643.06;;;20.77;64.54
79006;BME280;69202;45.498;-73.582;2023-08-20T07:39:15;100629.81;;;20.69;65.97
79006;BME280;69202;45.498;-73.582;2023-08-20T07:41:41;100464.81;;;19.60;64.91
79006;BME280;69202;45.498;-73.582;2023-08-20T07:44:07;100585.94;;;20.32;65.27
79006;BME280;69202;45.498;-73.582;2023-08-20T07:46:33;100601.31;;;20.28;64.29
79006;BME280;69202;45.498;-73.582;2023-08-20T07:48:59;100668.00;;;20.65;63.88
79006;BME280;69202;45.498;-73.582;2023-08-20T07:51:25;100405.81;;;18.79;63.63
79006;BME280;69202;45.498;-73.582;2023-08-20T07:53:51;100588.03;;;20.09;63.44
79006;BME280;69202;45.498;-73.582;2023-08-20T07:56:17;100535.13;;;19.72;63.12
79006;BME280;69202;45.498;-73.582;2023-08-20T07:58:43;100546.09;;;19.72;66.20
79006;BME280;69202;45.498;-73.582;2023-08-20T08:01:09;100603.03;;;19.97;64.21
79006;BME280;69202;45.498;-73.582;2023-08-20T08:03:34;100612.16;;;20.07;64.25
79006;BME280;69202;45.498;-73.582;2023-08-20T08:06:00;100564.28;;;19.83;64.25
79006;BME280;69202;45.498;-73.582;2023-08-20T08:08:26;100614.34;;;20.05;65.35
79006;BME280;69202;45.498;-73.582;2023-08-20T08:10:52;100666.03;;;20.18;64.51
79006;BME280;69202;45.498;-73.582;2023-08-20T08:13:20;100621.97;;;19.98;65.03
79006;BME280;69202;45.498;-73.582;2023-08-20T08:15:47;100682.19;;;20.47;65.19
79006;BME280;69202;45.498;-73.582;2023-08-20T08:18:13;100698.97;;;20.51;65.63
79006;BME280;69202;45.498;-73.582;2023-08-20T08:20:42;100666.59;;;20.15;63.05
79006;BME280;69202;45.498;-73.582;2023-08-20T08:23:08;100665.22;;;20.18;65.03
79006;BME280;69202;45.498;-73.582;2023-08-20T08:25:34;100647.84;;;20.02;65.39
79006;BME280;69202;45.498;-73.582;2023-08-20T08:28:00;100602.13;;;19.49;66.16
79006;BME280;69202;45.498;-73.582;2023-08-20T08:30:26;100727.88;;;20.26;65.09
79006;BME280;69202;45.498;-73.582;2023-08-20T08:32:52;100685.47;;;20.07;65.90
79006;BME280;69202;45.498;-73.582;2023-08-20T08:35:20;100723.59;;;20.40;65.95
79006;BME280;69202;45.498;-73.582;2023-08-20T08:37:46;100736.16;;;20.31;66.11
79006;BME280;69202;45.498;-73.582;2023-08-20T08:40:12;100702.13;;;20.00;65.47
79006;BME280;69202;45.498;-73.582;2023-08-20T08:42:40;100722.31;;;20.16;64.59
79006;BME280;69202;45.498;-73.582;2023-08-20T08:45:07;100484.75;;;18.60;65.01
79006;BME280;69202;45.498;-73.582;2023-08-20T08:47:34;100660.56;;;19.81;66.33
79006;BME280;69202;45.498;-73.582;2023-08-20T08:50:01;100304.66;;;17.59;65.37
79006;BME280;69202;45.498;-73.582;2023-08-20T08:52:28;100599.50;;;19.32;64.67
79006;BME280;69202;45.498;-73.582;2023-08-20T08:54:54;100578.88;;;18.97;66.57
79006;BME280;69202;45.498;-73.582;2023-08-20T08:57:19;100728.00;;;20.04;66.31
79006;BME280;69202;45.498;-73.582;2023-08-20T08:59:45;100724.41;;;20.04;67.37
79006;BME280;69202;45.498;-73.582;2023-08-20T09:02:12;100721.53;;;19.88;66.29
79006;BME280;69202;45.498;-73.582;2023-08-20T09:04:42;100707.53;;;19.90;66.37
79006;BME280;69202;45.498;-73.582;2023-08-20T09:07:12;100717.47;;;19.91;65.56
79006;BME280;69202;45.498;-73.582;2023-08-20T09:09:43;100602.06;;;19.17;65.92
79006;BME280;69202;45.498;-73.582;2023-08-20T09:12:18;100539.00;;;18.63;65.84
79006;BME280;69202;45.498;-73.582;2023-08-20T09:14:50;100688.59;;;19.56;67.30
79006;BME280;69202;45.498;-73.582;2023-08-20T09:17:16;100773.47;;;19.95;67.03
79006;BME280;69202;45.498;-73.582;2023-08-20T09:19:44;100754.28;;;20.00;66.37
79006;BME280;69202;45.498;-73.582;2023-08-20T09:22:14;100752.69;;;20.04;66.75
79006;BME280;69202;45.498;-73.582;2023-08-20T09:24:44;100728.38;;;19.86;65.93
79006;BME280;69202;45.498;-73.582;2023-08-20T09:27:11;100541.59;;;18.69;67.15
79006;BME280;69202;45.498;-73.582;2023-08-20T09:29:48;100766.09;;;20.01;66.70
79006;BME280;69202;45.498;-73.582;2023-08-20T09:32:22;100668.06;;;19.37;65.88
79006;BME280;69202;45.498;-73.582;2023-08-20T09:34:50;100490.84;;;18.40;66.98
79006;BME280;69202;45.498;-73.582;2023-08-20T09:37:19;100512.44;;;18.36;67.07
79006;BME280;69202;45.498;-73.582;2023-08-20T09:39:45;100783.66;;;20.00;66.90
79006;BME280;69202;45.498;-73.582;2023-08-20T09:42:11;100568.03;;;18.86;67.53
79006;BME280;69202;45.498;-73.582;2023-08-20T09:44:40;100768.59;;;20.02;66.79
79006;BME280;69202;45.498;-73.582;2023-08-20T09:47:08;100702.75;;;19.75;66.87
79006;BME280;69202;45.498;-73.582;2023-08-20T09:49:39;100766.72;;;20.08;66.44
79006;BME280;69202;45.498;-73.582;2023-08-20T09:52:06;100600.53;;;18.99;66.99
79006;BME280;69202;45.498;-73.582;2023-08-20T09:54:50;100764.84;;;20.13;66.22
79006;BME280;69202;45.498;-73.582;2023-08-20T09:57:35;100779.97;;;20.16;66.40
79006;BME280;69202;45.498;-73.582;2023-08-20T10:00:03;100657.47;;;19.46;66.11
79006;BME280;69202;45.498;-73.582;2023-08-20T10:02:32;100786.69;;;20.30;67.07
79006;BME280;69202;45.498;-73.582;2023-08-20T10:04:59;100673.06;;;19.67;65.47
79006;BME280;69202;45.498;-73.582;2023-08-20T10:07:29;100732.09;;;20.02;64.89
79006;BME280;69202;45.498;-73.582;2023-08-20T10:09:58;100729.84;;;19.99;65.66
79006;BME280;69202;45.498;-73.582;2023-08-20T10:12:27;100688.13;;;19.65;65.88
79006;BME280;69202;45.498;-73.582;2023-08-20T10:14:55;100552.59;;;18.74;66.03
79006;BME280;69202;45.498;-73.582;2023-08-20T10:17:22;100799.03;;;20.28;66.36
79006;BME280;69202;45.498;-73.582;2023-08-20T10:19:48;100780.91;;;20.00;66.29
79006;BME280;69202;45.498;-73.582;2023-08-20T10:22:14;100776.16;;;19.90;65.40
79006;BME280;69202;45.498;-73.582;2023-08-20T10:24:47;100791.34;;;20.30;65.79
79006;BME280;69202;45.498;-73.582;2023-08-20T10:27:24;100657.16;;;19.42;66.87
79006;BME280;69202;45.498;-73.582;2023-08-20T10:29:52;100726.47;;;19.86;66.86
79006;BME280;69202;45.498;-73.582;2023-08-20T10:32:19;100766.41;;;20.04;66.20
79006;BME280;69202;45.498;-73.582;2023-08-20T10:34:50;100609.50;;;18.94;66.59
79006;BME280;69202;45.498;-73.582;2023-08-20T10:37:26;100747.31;;;19.87;67.58
79006;BME280;69202;45.498;-73.582;2023-08-20T10:39:56;100702.72;;;19.48;66.68
79006;BME280;69202;45.498;-73.582;2023-08-20T10:42:27;100686.41;;;19.31;66.52
79006;BME280;69202;45.498;-73.582;2023-08-20T10:45:05;100775.31;;;19.89;66.87
79006;BME280;69202;45.498;-73.582;2023-08-20T10:50:03;100747.31;;;19.87;66.64
79006;BME280;69202;45.498;-73.582;2023-08-20T10:52:29;100833.06;;;20.54;66.72
79006;BME280;69202;45.498;-73.582;2023-08-20T10:54:56;100831.16;;;20.59;65.50
79006;BME280;69202;45.498;-73.582;2023-08-20T10:57:22;100584.69;;;19.06;66.26
79006;BME280;69202;45.498;-73.582;2023-08-20T10:59:58;100747.06;;;20.21;65.53
79006;BME280;69202;45.498;-73.582;2023-08-20T11:02:28;100679.50;;;19.83;65.67
79006;BME280;69202;45.498;-73.582;2023-08-20T11:04:54;100747.56;;;20.13;64.92
79006;BME280;69202;45.498;-73.582;2023-08-20T11:07:20;100721.78;;;19.87;65.02
79006;BME280;69202;45.498;-73.582;2023-08-20T11:09:46;100826.28;;;20.66;66.14
79006;BME280;69202;45.498;-73.582;2023-08-20T11:12:20;100668.31;;;19.57;64.56
79006;BME280;69202;45.498;-73.582;2023-08-20T11:14:46;100718.59;;;19.95;64.93
79006;BME280;69202;45.498;-73.582;2023-08-20T11:17:13;100603.16;;;19.43;64.44
79006;BME280;69202;45.498;-73.582;2023-08-20T11:19:39;100701.44;;;20.15;64.00
79006;BME280;69202;45.498;-73.582;2023-08-20T11:22:06;100652.94;;;19.88;64.92
79006;BME280;69202;45.498;-73.582;2023-08-20T11:24:32;100672.47;;;19.97;64.54
79006;BME280;69202;45.498;-73.582;2023-08-20T11:26:58;100830.06;;;20.97;63.84
79006;BME280;69202;45.498;-73.582;2023-08-20T11:29:25;100757.19;;;20.53;64.32
79006;BME280;69202;45.498;-73.582;2023-08-20T11:31:52;100824.31;;;21.04;63.27
79006;BME280;69202;45.498;-73.582;2023-08-20T11:34:21;100830.19;;;21.23;63.22
79006;BME280;69202;45.498;-73.582;2023-08-20T11:36:47;100786.03;;;20.92;63.54
79006;BME280;69202;45.498;-73.582;2023-08-20T11:39:17;100794.00;;;20.89;64.06
79006;BME280;69202;45.498;-73.582;2023-08-20T11:41:43;100756.84;;;20.81;63.48
79006;BME280;69202;45.498;-73.582;2023-08-20T11:44:10;100807.84;;;21.09;62.75
79006;BME280;69202;45.498;-73.582;2023-08-20T11:46:42;100629.88;;;19.89;62.21
79006;BME280;69202;45.498;-73.582;2023-08-20T11:49:10;100842.38;;;21.27;63.22
79006;BME280;69202;45.498;-73.582;2023-08-20T11:54:15;100754.59;;;20.73;62.52
79006;BME280;69202;45.498;-73.582;2023-08-20T11:56:50;100788.88;;;21.08;61.92
79006;BME280;69202;45.498;-73.582;2023-08-20T11:59:19;100819.63;;;20.99;62.59
79006;BME280;69202;45.498;-73.582;2023-08-20T12:01:52;100691.22;;;20.42;61.64
79006;BME280;69202;45.498;-73.582;2023-08-20T12:04:18;100852.00;;;21.35;62.51
79006;BME280;69202;45.498;-73.582;2023-08-20T12:06:44;100831.00;;;21.23;62.59
79006;BME280;69202;45.498;-73.582;2023-08-20T12:09:24;100787.47;;;21.00;60.67
79006;BME280;69202;45.498;-73.582;2023-08-20T12:11:54;100816.69;;;21.16;62.23
79006;BME280;69202;45.498;-73.582;2023-08-20T12:14:24;100803.13;;;20.99;63.32
79006;BME280;69202;45.498;-73.582;2023-08-20T12:16:50;100683.47;;;20.39;61.51
79006;BME280;69202;45.498;-73.582;2023-08-20T12:19:18;100852.69;;;21.62;61.57
79006;BME280;69202;45.498;-73.582;2023-08-20T12:21:45;100860.03;;;21.46;60.67
79006;BME280;69202;45.498;-73.582;2023-08-20T12:24:11;100662.38;;;20.03;60.74
79006;BME280;69202;45.498;-73.582;2023-08-20T12:26:38;100780.53;;;20.87;62.71
79006;BME280;69202;45.498;-73.582;2023-08-20T12:29:04;100844.84;;;21.28;62.76
79006;BME280;69202;45.498;-73.582;2023-08-20T12:31:31;100840.16;;;21.29;62.24
79006;BME280;69202;45.498;-73.582;2023-08-20T12:33:57;100799.88;;;21.13;61.30
79006;BME280;69202;45.498;-73.582;2023-08-20T12:36:23;100837.19;;;21.41;60.51
79006;BME280;69202;45.498;-73.582;2023-08-20T12:38:49;100866.13;;;21.53;62.08
79006;BME280;69202;45.498;-73.582;2023-08-20T12:41:15;100760.19;;;20.93;62.46
79006;BME280;69202;45.498;-73.582;2023-08-20T12:43:42;100824.97;;;21.21;61.97